Sargeant, MN

7:50 AM CST on February 10, 2016 (GMT -0600)
Hayfield | | Change Station
CLOSE
Current Station
Personal Weather Station
Location: Hayfield, MN
Elevation: 1316 ft
Nearby Weather Stations

Elev 1316 ft 43.89 °N, 92.85 °W | Updated 26 seconds ago

Partly Cloudy
Partly Cloudy
0.0 °F
Feels Like 0 °F
N
0.0
Wind Variable Wind from North
Gusts 1.0 mph

Today
High -- | Low -- °F
--% Chance of Precip.
Yesterday
High -- | Low -- °F
Precip. -- in
Pressure 30.07 in
Visibility 10.0 miles
Clouds Clear
Windchill 0 °F
Dew Point -6 °F
Humidity 75%
Rainfall 0.00 in
Snow Depth Not available.
7:17 AM 5:33 PM
Waxing Crescent, 5% visible
METAR KAUM 101334Z AUTO 00000KT 10SM CLR M17/M19 A3007 RMK AO2
Pressure 30.07 in
Visibility 10.0 miles
Clouds Clear
Windchill 0 °F
Dew Point -6 °F
Humidity 75%
Rainfall 0.00 in
Snow Depth Not available.
7:17 AM 5:33 PM
Waxing Crescent, 5% visible
METAR KAUM 101334Z AUTO 00000KT 10SM CLR M17/M19 A3007 RMK AO2

10-Day Weather Forecast

Almanac

Astronomy

Feb. 10, 2016 Rise Set
Actual Time
Civil Twilight
Nautical Twilight
Astronomical Twilight
Moon
Length of Visible Light
Length of Day
Tomorrow will be .
, % of the Moon is Illuminated

Today's Extremes

State Highs State Lows

Community

WunderPhotos

Upload Photos

1,891,845 photos uploaded!

WunderBlog® & News

Nearby

Air Quality

  Air Quality AQ Index Pollutant
Not available.

Snow Depth

Station Depth Elevation

Earthquake Activity

City Distance Mag. Time & Date
Minimum magnitude displayed is 2.5.

Coastal Water Temperatures

Place Temperature

Stations

Nearby Weather Stations

Station Location Temp. Windchill Dew Point Humidity Wind Precip. Elev Updated Type
                   

Watches & Warnings

There are currently no watches in effect.